Time;durP1;ratioP1;P1;durP2;ratioP2;P2;SDS_P1;SDS_P2;PMS_P1;PMS_P2;Temp;Humidity;BMP_temperature;BMP_pressure;BME280_temperature;BME280_humidity;BME280_pressure;Samples;Min_cycle;Max_cycle;Signal;HPM_P1;HPM_P2
2022/07/30 00:01:50;;;;;;;;;3.75;3.75;;;;;26.25;33.75;101392.84;5032056;28;45489;-68
2022/07/30 00:04:16;;;;;;;;;5.00;3.00;;;;;26.15;33.48;101405.84;5033093;28;45474;-66
2022/07/30 00:06:42;;;;;;;;;4.50;3.75;;;;;26.16;33.27;101407.59;5035992;28;45441;-68
2022/07/30 00:09:08;;;;;;;;;4.25;3.75;;;;;26.07;34.30;101390.16;5034888;28;45485;-68
2022/07/30 00:11:34;;;;;;;;;4.25;4.25;;;;;26.23;33.28;101409.88;5029955;28;45806;-69
2022/07/30 00:14:00;;;;;;;;;4.00;4.00;;;;;26.19;33.59;101408.28;5032190;28;45905;-70
2022/07/30 00:16:26;;;;;;;;;5.00;4.00;;;;;26.22;33.80;101408.16;5028437;28;45492;-69
2022/07/30 00:18:52;;;;;;;;;5.75;4.00;;;;;26.26;34.00;101418.72;5032009;28;45624;-67
2022/07/30 00:21:18;;;;;;;;;3.75;3.75;;;;;26.19;33.70;101399.38;5036164;28;45517;-66
2022/07/30 00:23:43;;;;;;;;;3.00;3.00;;;;;26.31;33.44;101413.97;5035766;28;45599;-69
2022/07/30 00:26:09;;;;;;;;;3.25;3.25;;;;;26.27;33.52;101394.50;5031000;28;45531;-67
2022/07/30 00:28:34;;;;;;;;;4.00;3.00;;;;;26.15;33.50;101395.13;5034735;28;45538;-70
2022/07/30 00:31:00;;;;;;;;;4.00;4.00;;;;;26.17;33.82;101410.22;5037054;28;45447;-67
2022/07/30 00:33:26;;;;;;;;;5.00;5.00;;;;;26.05;33.70;101384.00;5033909;28;45459;-67
2022/07/30 00:35:55;;;;;;;;;1.25;1.25;;;;;26.12;33.78;101388.09;5031906;28;45370;-70
2022/07/30 00:38:21;;;;;;;;;4.00;4.00;;;;;26.22;33.67;101402.78;5052462;28;45477;-71
2022/07/30 00:40:47;;;;;;;;;4.33;4.33;;;;;26.04;34.27;101390.31;5035038;28;45782;-67
2022/07/30 00:43:17;;;;;;;;;2.00;1.00;;;;;26.02;34.23;101401.13;5039178;28;46343;-66
2022/07/30 00:45:45;;;;;;;;;5.00;5.00;;;;;25.90;34.54;101395.56;5030711;28;45438;-68
2022/07/30 00:48:13;;;;;;;;;4.00;4.00;;;;;25.83;34.55;101376.19;5039379;28;46924;-67
2022/07/30 00:50:59;;;;;;;;;3.50;3.50;;;;;25.88;34.51;101400.13;5039238;28;45475;-66
2022/07/30 00:53:24;;;;;;;;;4.75;4.75;;;;;25.77;34.76;101393.47;5032535;28;46574;-67
2022/07/30 00:55:50;;;;;;;;;4.75;4.75;;;;;25.69;35.12;101382.25;5025063;28;45579;-68
2022/07/30 00:58:16;;;;;;;;;5.00;5.00;;;;;25.65;35.43;101393.22;5036228;28;45625;-66
2022/07/30 01:00:42;;;;;;;;;5.00;5.00;;;;;25.67;34.85;101392.19;5036725;28;45717;-67
2022/07/30 01:03:07;;;;;;;;;8.00;5.33;;;;;25.65;35.37;101390.53;5035813;28;45902;-67
2022/07/30 01:05:33;;;;;;;;;6.33;4.67;;;;;25.65;34.86;101369.97;5036034;28;45727;-66
2022/07/30 01:07:59;;;;;;;;;6.33;6.33;;;;;25.84;35.03;101385.09;5037723;28;45462;-68
2022/07/30 01:10:25;;;;;;;;;3.00;3.00;;;;;25.71;35.60;101372.31;5040651;28;45513;-65
2022/07/30 01:12:51;;;;;;;;;6.00;6.00;;;;;25.62;35.51;101375.47;5039156;28;45449;-70
2022/07/30 01:15:17;;;;;;;;;6.00;5.00;;;;;25.61;35.77;101387.16;5039560;28;45339;-67
2022/07/30 01:17:45;;;;;;;;;7.00;6.00;;;;;25.48;35.55;101373.47;5034982;28;45514;-70
2022/07/30 01:20:25;;;;;;;;;5.00;5.00;;;;;25.48;35.84;101391.38;5037116;28;45440;-69
2022/07/30 01:22:59;;;;;;;;;6.00;6.00;;;;;25.52;36.08;101382.25;5025394;28;45964;-68
2022/07/30 01:25:31;;;;;;;;;7.00;7.00;;;;;25.42;36.20;101392.56;5035651;28;45477;-67
2022/07/30 01:28:10;;;;;;;;;5.67;5.67;;;;;25.42;36.51;101383.66;5035402;28;45497;-70
2022/07/30 01:30:45;;;;;;;;;7.00;6.33;;;;;25.42;35.62;101375.63;5034711;28;45607;-68
2022/07/30 01:33:15;;;;;;;;;5.00;5.00;;;;;25.46;37.18;101377.19;5033988;28;45549;-70
2022/07/30 01:35:44;;;;;;;;;10.00;9.33;;;;;25.24;36.98;101393.47;5035052;28;45433;-70
2022/07/30 01:38:11;;;;;;;;;8.67;7.33;;;;;24.83;37.18;101335.56;5050838;28;45426;-69
2022/07/30 01:40:38;;;;;;;;;8.00;5.67;;;;;25.02;37.61;101378.41;5036137;28;45438;-71
2022/07/30 01:43:06;;;;;;;;;9.00;8.00;;;;;24.96;38.54;101392.97;5044625;28;46981;-69
2022/07/30 01:45:33;;;;;;;;;8.00;8.00;;;;;24.89;38.10;101388.84;5035023;28;45402;-71
2022/07/30 01:48:06;;;;;;;;;8.00;7.33;;;;;24.80;38.29;101386.59;5035647;28;45423;-71
2022/07/30 01:50:34;;;;;;;;;7.33;6.00;;;;;24.92;38.05;101391.38;5034603;28;45373;-68
2022/07/30 01:53:01;;;;;;;;;7.67;6.33;;;;;24.87;37.98;101390.72;5034396;28;47796;-65
2022/07/30 01:55:35;;;;;;;;;7.00;7.00;;;;;24.59;38.11;101366.19;5036063;28;45382;-67
2022/07/30 08:21:07;;;;;;;;;5.00;5.00;;;;;25.90;37.45;101450.09;5030794;27;45580;-69
2022/07/30 08:23:32;;;;;;;;;4.00;4.00;;;;;26.28;36.83;101467.84;5011487;27;45362;-68
2022/07/30 08:25:58;;;;;;;;;7.00;5.00;;;;;26.63;36.50;101471.38;4999596;27;45444;-67
2022/07/30 08:28:24;;;;;;;;;5.00;4.00;;;;;26.89;35.69;101475.34;5012459;27;45765;-67
2022/07/30 08:30:50;;;;;;;;;5.50;5.50;;;;;27.06;35.23;101474.41;5011693;27;46261;-66
2022/07/30 08:33:16;;;;;;;;;3.00;3.00;;;;;27.25;34.92;101479.66;5010079;27;45428;-65
2022/07/30 08:35:41;;;;;;;;;5.00;5.00;;;;;27.40;34.40;101478.78;5010611;27;45380;-67
2022/07/30 08:38:07;;;;;;;;;5.00;5.00;;;;;27.50;34.39;101476.44;4995990;28;45590;-67
2022/07/30 08:40:34;;;;;;;;;4.25;4.25;;;;;27.60;34.12;101490.25;5009194;27;45409;-67
2022/07/30 08:43:12;;;;;;;;;6.50;5.00;;;;;27.58;33.76;101476.00;5008367;27;45473;-66
2022/07/30 08:45:39;;;;;;;;;4.75;4.75;;;;;27.71;33.61;101485.09;4988894;28;45683;-67
2022/07/30 08:48:11;;;;;;;;;6.00;6.00;;;;;27.86;33.68;101494.16;5061849;27;45602;-66
2022/07/30 08:50:37;;;;;;;;;5.75;5.00;;;;;28.01;32.74;101481.59;5005099;28;46918;-67
2022/07/30 08:53:03;;;;;;;;;7.00;7.00;;;;;28.16;32.98;101477.97;5007042;27;45600;-66
2022/07/30 08:55:29;;;;;;;;;5.75;5.75;;;;;28.30;32.53;101469.06;5007336;27;45793;-66
2022/07/30 08:57:55;;;;;;;;;5.00;5.00;;;;;28.49;32.39;101475.06;4992109;27;45625;-68
2022/07/30 09:00:20;;;;;;;;;5.75;5.50;;;;;28.50;32.75;101481.34;4987080;27;48008;-68
2022/07/30 09:02:46;;;;;;;;;6.00;6.00;;;;;28.64;32.36;101475.97;4985024;28;45449;-66
2022/07/30 09:05:12;;;;;;;;;9.00;5.75;;;;;28.88;32.23;101480.78;5002194;27;45646;-66
2022/07/30 09:07:39;;;;;;;;;7.50;5.00;;;;;29.01;31.76;101480.84;5006120;27;45579;-68
2022/07/30 09:10:07;;;;;;;;;8.00;5.75;;;;;29.14;31.06;101488.09;5003294;27;46182;-66
2022/07/30 09:12:35;;;;;;;;;6.00;6.00;;;;;29.13;32.14;101486.34;4995115;27;45514;-67
2022/07/30 09:15:01;;;;;;;;;8.50;6.00;;;;;29.25;31.16;101486.53;5006456;27;45558;-67
2022/07/30 09:17:27;;;;;;;;;7.00;6.00;;;;;29.27;30.45;101481.91;5006894;27;45500;-67
2022/07/30 09:20:04;;;;;;;;;5.00;5.00;;;;;29.35;31.29;101487.66;5004089;27;45538;-65
2022/07/30 09:22:47;;;;;;;;;8.75;6.25;;;;;29.33;31.03;101487.78;5005007;27;45603;-66
2022/07/30 09:25:13;;;;;;;;;6.50;4.75;;;;;29.39;30.76;101489.19;5007407;27;45406;-66
2022/07/30 09:27:49;;;;;;;;;8.00;6.25;;;;;29.44;30.61;101484.34;5006207;27;45848;-65
2022/07/30 09:30:15;;;;;;;;;6.00;6.00;;;;;29.31;30.47;101481.63;5003062;27;46000;-65
2022/07/30 09:32:52;;;;;;;;;5.75;5.75;;;;;29.22;30.35;101492.13;4970296;28;45608;-65
2022/07/30 09:35:18;;;;;;;;;6.75;6.00;;;;;29.17;30.52;101498.69;4984140;27;45397;-67
2022/07/30 09:37:45;;;;;;;;;7.00;5.00;;;;;29.23;30.27;101502.81;4992000;27;45235;-66
2022/07/30 09:40:16;;;;;;;;;3.75;3.75;;;;;29.30;30.07;101492.50;4965857;28;47480;-66
2022/07/30 09:42:43;;;;;;;;;5.25;5.25;;;;;29.52;30.30;101494.66;4990278;27;45516;-67
2022/07/30 09:45:13;;;;;;;;;7.25;6.00;;;;;29.67;29.55;101500.91;4983321;27;45370;-66
2022/07/30 09:47:44;;;;;;;;;5.25;5.25;;;;;29.67;29.51;101498.22;4992456;27;45525;-66
2022/07/30 09:50:12;;;;;;;;;6.25;6.25;;;;;29.70;29.58;101501.56;4996629;27;45512;-66
2022/07/30 09:52:41;;;;;;;;;6.75;5.25;;;;;29.73;30.10;101495.97;4993068;27;45366;-66
2022/07/30 09:55:07;;;;;;;;;5.00;5.00;;;;;29.86;29.17;101498.72;4983366;27;45447;-67
2022/07/30 09:57:33;;;;;;;;;5.25;5.25;;;;;30.01;29.60;101505.75;5002540;27;45541;-67
2022/07/30 10:00:20;;;;;;;;;6.00;6.00;;;;;30.13;28.64;101495.94;5037825;27;46221;-67
2022/07/30 10:02:46;;;;;;;;;4.25;4.25;;;;;30.18;28.25;101490.25;4990695;27;45385;-67
2022/07/30 10:05:18;;;;;;;;;5.00;5.00;;;;;30.28;27.81;101495.91;5033693;27;45537;-67
2022/07/30 10:08:10;;;;;;;;;4.50;4.50;;;;;30.31;28.43;101498.41;5010454;27;45331;-66
2022/07/30 10:10:36;;;;;;;;;5.00;5.00;;;;;30.26;28.29;101487.94;4978458;27;45543;-66
2022/07/30 10:13:06;;;;;;;;;4.50;4.50;;;;;30.23;28.33;101488.97;4990434;27;45519;-66
2022/07/30 10:15:34;;;;;;;;;5.75;5.00;;;;;30.08;28.54;101483.75;4995697;27;45418;-68
2022/07/30 10:18:01;;;;;;;;;6.00;6.00;;;;;30.17;27.74;101491.22;4993053;27;45787;-68
2022/07/30 10:20:27;;;;;;;;;7.00;5.25;;;;;30.31;28.46;101488.47;4992245;27;46309;-66
2022/07/30 10:22:53;;;;;;;;;5.50;5.50;;;;;30.36;28.33;101489.00;4996242;27;45278;-67
2022/07/30 10:25:21;;;;;;;;;7.00;7.00;;;;;30.30;27.94;101489.44;4987003;27;45473;-66
2022/07/30 10:27:48;;;;;;;;;5.00;5.00;;;;;30.35;28.51;101491.81;4964179;28;45609;-66
2022/07/30 10:30:14;;;;;;;;;5.50;4.00;;;;;30.49;27.71;101493.53;4994499;28;46802;-66
2022/07/30 10:32:40;;;;;;;;;4.25;4.25;;;;;30.62;27.40;101479.06;5075726;28;45922;-67
2022/07/30 10:35:08;;;;;;;;;6.00;5.00;;;;;30.73;27.70;101477.41;4983970;27;45472;-66
2022/07/30 10:37:37;;;;;;;;;4.75;4.75;;;;;30.79;27.27;101474.28;4992524;27;45749;-67
2022/07/30 10:40:13;;;;;;;;;4.00;3.00;;;;;30.76;27.02;101461.00;4988136;27;45582;-65
2022/07/30 10:42:57;;;;;;;;;6.00;4.50;;;;;30.88;26.98;101470.09;4974847;28;45666;-66
2022/07/30 10:45:48;;;;;;;;;5.00;5.00;;;;;30.63;26.98;101447.47;4979412;27;45625;-67
2022/07/30 10:48:18;;;;;;;;;5.25;4.75;;;;;30.77;27.67;101465.41;4980522;27;45417;-67
2022/07/30 10:50:58;;;;;;;;;5.50;5.50;;;;;30.82;27.77;101463.25;4998219;27;45469;-67
2022/07/30 10:53:47;;;;;;;;;5.75;4.50;;;;;30.80;27.82;101436.34;4988503;27;45273;-65
2022/07/30 10:56:22;;;;;;;;;4.75;4.75;;;;;31.07;27.03;101470.50;4989075;27;45442;-67
2022/07/30 10:59:06;;;;;;;;;4.50;4.50;;;;;31.04;27.25;101451.78;4979737;27;45536;-67
2022/07/30 11:01:47;;;;;;;;;6.00;6.00;;;;;31.15;27.31;101465.38;5001914;27;45412;-66
2022/07/30 11:04:23;;;;;;;;;7.00;7.00;;;;;30.97;27.14;101459.47;4991946;27;45730;-66
2022/07/30 11:07:26;;;;;;;;;6.25;6.25;;;;;30.94;27.28;101443.44;4992535;27;45388;-68
2022/07/30 11:09:54;;;;;;;;;6.00;6.00;;;;;31.09;27.64;101446.91;4974455;28;45522;-67
2022/07/30 11:12:41;;;;;;;;;6.00;6.00;;;;;31.25;27.10;101447.50;4991701;27;45409;-67
2022/07/30 11:15:08;;;;;;;;;7.00;5.40;;;;;31.16;27.19;101445.47;4991778;27;45456;-66
2022/07/30 11:18:09;;;;;;;;;5.25;5.25;;;;;31.26;27.54;101445.66;4992013;27;45445;-65
2022/07/30 11:20:35;;;;;;;;;5.25;4.75;;;;;31.28;27.74;101433.72;4991389;27;45528;-65
2022/07/30 11:23:28;;;;;;;;;6.50;4.50;;;;;31.55;27.26;101450.75;4992107;27;45571;-66
2022/07/30 11:25:54;;;;;;;;;5.75;5.75;;;;;31.62;27.58;101442.03;4969984;28;45427;-66
2022/07/30 11:28:36;;;;;;;;;8.25;6.50;;;;;31.81;27.13;101446.91;4966260;27;45416;-65
2022/07/30 11:31:03;;;;;;;;;6.25;6.25;;;;;31.98;26.65;101447.50;4995595;27;45460;-67
2022/07/30 11:33:29;;;;;;;;;5.00;5.00;;;;;32.04;26.64;101437.06;4993273;27;45342;-66
2022/07/30 11:36:11;;;;;;;;;4.50;4.50;;;;;32.18;26.91;101445.94;4991435;27;45465;-65
2022/07/30 11:38:53;;;;;;;;;6.25;4.75;;;;;32.26;26.96;101446.22;4992141;27;46108;-66
2022/07/30 11:41:19;;;;;;;;;5.00;5.00;;;;;32.29;26.06;101432.41;4993987;27;45503;-64
2022/07/30 11:43:45;;;;;;;;;4.75;4.75;;;;;32.29;25.82;101424.28;4991326;27;45497;-66
2022/07/30 11:46:14;;;;;;;;;5.50;5.50;;;;;32.36;26.27;101422.81;5066209;27;45519;-67
2022/07/30 11:48:58;;;;;;;;;5.20;5.20;;;;;32.49;26.05;101420.84;4991820;28;45567;-67
2022/07/30 11:51:24;;;;;;;;;6.00;6.00;;;;;32.62;25.48;101426.19;4991360;27;45580;-66
2022/07/30 11:54:04;;;;;;;;;6.50;6.50;;;;;32.73;26.10;101430.75;4990691;27;46636;-66
2022/07/30 11:56:30;;;;;;;;;5.40;5.00;;;;;32.87;25.56;101426.91;4990797;27;45824;-66
2022/07/30 11:59:06;;;;;;;;;5.00;4.60;;;;;32.94;25.85;101426.28;4978754;27;45388;-68
2022/07/30 12:01:33;;;;;;;;;4.50;4.50;;;;;33.06;25.57;101427.16;4979802;27;45795;-66
2022/07/30 12:04:02;;;;;;;;;5.75;5.75;;;;;33.11;25.93;101421.34;4988586;27;45830;-67
2022/07/30 12:06:32;;;;;;;;;6.00;6.00;;;;;33.03;25.38;101404.78;4991415;27;45774;-65
2022/07/30 12:08:58;;;;;;;;;10.60;7.00;;;;;32.91;25.55;101420.22;4992223;27;45568;-65
2022/07/30 12:11:24;;;;;;;;;7.75;7.00;;;;;32.76;25.40;101421.50;4995134;27;45533;-67
2022/07/30 12:14:00;;;;;;;;;5.75;5.00;;;;;32.80;25.83;101421.13;4994333;27;46492;-67
2022/07/30 12:16:29;;;;;;;;;6.80;6.80;;;;;32.85;25.80;101416.19;4991064;28;45735;-65
2022/07/30 12:19:00;;;;;;;;;7.00;5.00;;;;;32.91;25.81;101423.84;4992292;27;45769;-65
2022/07/30 12:21:26;;;;;;;;;6.00;6.00;;;;;32.76;25.58;101425.06;4992499;27;45398;-66
2022/07/30 12:23:56;;;;;;;;;6.00;6.00;;;;;32.80;25.54;101425.69;4990506;27;45577;-68
2022/07/30 12:26:28;;;;;;;;;6.00;6.00;;;;;32.89;25.60;101414.97;4991034;27;45545;-66
2022/07/30 12:29:01;;;;;;;;;4.80;4.80;;;;;32.71;25.69;101409.16;4984577;27;45886;-65
2022/07/30 12:31:27;;;;;;;;;5.25;5.25;;;;;32.54;25.70;101409.69;4963693;28;45477;-66
2022/07/30 12:33:55;;;;;;;;;5.40;5.20;;;;;32.65;26.03;101406.09;4990476;27;45348;-65
2022/07/30 12:36:38;;;;;;;;;8.40;6.20;;;;;32.90;25.99;101415.81;4991796;27;45400;-65
2022/07/30 12:39:16;;;;;;;;;8.00;8.00;;;;;32.93;25.64;101401.97;4990376;27;45751;-67
2022/07/30 12:41:44;;;;;;;;;7.25;7.25;;;;;32.77;25.62;101402.41;4986300;28;45422;-66
2022/07/30 12:44:30;;;;;;;;;6.00;4.25;;;;;32.78;25.63;101408.69;4969468;28;47481;-67
2022/07/30 12:46:55;;;;;;;;;5.40;4.60;;;;;32.78;25.97;101406.81;5016685;27;45370;-66
2022/07/30 12:49:28;;;;;;;;;5.75;4.50;;;;;32.66;25.61;101399.69;5072947;28;45503;-65
2022/07/30 12:51:54;;;;;;;;;4.00;4.00;;;;;32.58;25.71;101397.59;5007576;27;45496;-65
2022/07/30 12:54:20;;;;;;;;;3.50;3.50;;;;;32.40;25.90;101404.47;4985805;28;46142;-65
2022/07/30 12:57:03;;;;;;;;;5.00;5.00;;;;;32.50;25.88;101411.75;4984082;27;45450;-66
2022/07/30 12:59:29;;;;;;;;;5.60;5.60;;;;;32.63;25.49;101399.91;4982002;27;45557;-66
2022/07/30 13:01:56;;;;;;;;;4.75;4.75;;;;;32.85;25.66;101404.47;4990461;27;45428;-66
2022/07/30 13:04:22;;;;;;;;;4.00;4.00;;;;;33.03;25.49;101388.50;4990425;27;45415;-67
2022/07/30 13:07:09;;;;;;;;;5.75;4.00;;;;;33.27;25.02;101391.94;4993307;27;45430;-66
2022/07/30 13:09:35;;;;;;;;;4.20;4.20;;;;;33.46;25.13;101393.97;5023442;27;45282;-66
2022/07/30 13:12:01;;;;;;;;;4.00;4.00;;;;;33.52;24.79;101379.84;4972352;27;45402;-67
2022/07/30 13:14:27;;;;;;;;;5.50;5.50;;;;;33.41;25.40;101393.50;4987201;27;45288;-65
2022/07/30 13:16:57;;;;;;;;;5.75;5.50;;;;;33.45;25.45;101381.38;4980783;27;45386;-66
2022/07/30 13:19:23;;;;;;;;;5.60;5.00;;;;;33.12;25.87;101380.50;4982907;27;45377;-66
2022/07/30 13:21:49;;;;;;;;;5.75;5.75;;;;;33.06;25.56;101385.59;4994555;27;45408;-64
2022/07/30 13:24:15;;;;;;;;;6.25;5.25;;;;;32.93;25.86;101381.13;4996722;27;46264;-66
2022/07/30 13:26:41;;;;;;;;;5.00;5.00;;;;;33.18;25.80;101391.88;4985896;27;45930;-66
2022/07/30 13:29:06;;;;;;;;;5.25;5.25;;;;;33.37;24.94;101392.91;4990681;27;45467;-65
2022/07/30 13:31:32;;;;;;;;;4.00;4.00;;;;;33.45;24.69;101377.81;5053138;27;45503;-64
2022/07/30 13:33:58;;;;;;;;;5.00;5.00;;;;;33.63;24.89;101370.00;4985403;27;45516;-65
2022/07/30 13:36:23;;;;;;;;;4.00;3.25;;;;;33.81;24.82;101365.66;4994332;27;45438;-65
2022/07/30 13:38:49;;;;;;;;;4.00;4.00;;;;;33.66;24.30;101364.28;4990267;27;45768;-67
2022/07/30 13:41:17;;;;;;;;;4.25;3.25;;;;;33.78;24.48;101371.38;4985415;27;45517;-66
2022/07/30 13:43:43;;;;;;;;;3.00;3.00;;;;;33.90;24.28;101353.13;4980406;27;45732;-66
2022/07/30 13:46:09;;;;;;;;;3.00;3.00;;;;;34.02;24.09;101353.94;4991552;27;45447;-66
2022/07/30 13:48:35;;;;;;;;;4.25;4.00;;;;;34.08;23.89;101356.97;4981111;28;45857;-66
2022/07/30 13:51:01;;;;;;;;;4.25;4.25;;;;;34.11;24.09;101345.00;4990319;27;45829;-66
2022/07/30 13:53:28;;;;;;;;;3.40;3.40;;;;;34.30;23.73;101355.09;4985126;27;45401;-65
2022/07/30 13:55:54;;;;;;;;;5.80;5.80;;;;;34.30;23.81;101353.22;4973479;27;45360;-65
2022/07/30 13:58:19;;;;;;;;;5.00;4.00;;;;;34.23;23.81;101354.78;4979451;27;45474;-66
2022/07/30 14:00:46;;;;;;;;;4.00;3.00;;;;;33.96;23.94;101352.63;4982654;28;45701;-65
2022/07/30 14:03:13;;;;;;;;;6.00;4.00;;;;;33.98;24.20;101359.63;4974589;27;45874;-66
2022/07/30 14:05:40;;;;;;;;;3.60;3.60;;;;;33.76;24.13;101348.91;4977297;27;45499;-68
2022/07/30 14:08:07;;;;;;;;;4.20;4.20;;;;;33.65;23.79;101352.56;4982754;27;45770;-65
2022/07/30 14:10:36;;;;;;;;;3.00;3.00;;;;;33.77;23.70;101359.66;4980608;27;45687;-66
2022/07/30 14:13:04;;;;;;;;;4.40;4.00;;;;;33.78;23.62;101355.06;4964382;28;47737;-65
2022/07/30 14:15:30;;;;;;;;;3.20;3.20;;;;;33.86;23.83;101354.38;4981382;27;45812;-66
2022/07/30 14:17:56;;;;;;;;;4.00;4.00;;;;;33.92;23.33;101343.00;4989525;27;45378;-65
2022/07/30 14:20:22;;;;;;;;;3.00;3.00;;;;;34.02;23.78;101343.91;4978205;27;45673;-65
2022/07/30 14:22:48;;;;;;;;;3.80;3.80;;;;;34.05;23.32;101340.06;4978694;28;46549;-65
2022/07/30 14:25:13;;;;;;;;;2.50;2.50;;;;;33.96;23.76;101344.47;4991752;27;45508;-66
2022/07/30 14:27:39;;;;;;;;;3.25;3.25;;;;;33.87;23.77;101337.97;4996799;27;45403;-65
2022/07/30 14:30:08;;;;;;;;;5.50;5.00;;;;;33.95;23.87;101340.88;4982572;27;45264;-66
2022/07/30 14:32:34;;;;;;;;;5.40;5.40;;;;;34.05;23.86;101337.34;4993371;27;46510;-67
2022/07/30 14:34:59;;;;;;;;;3.40;3.40;;;;;34.17;23.63;101339.00;4991366;27;45505;-66
2022/07/30 14:37:25;;;;;;;;;4.00;4.00;;;;;34.19;23.53;101327.03;4982865;27;45954;-66
2022/07/30 14:39:50;;;;;;;;;5.50;4.25;;;;;34.15;23.68;101330.16;4975313;27;45480;-66
2022/07/30 14:42:16;;;;;;;;;6.50;4.50;;;;;34.00;23.62;101335.91;4978461;27;45423;-65
2022/07/30 14:44:42;;;;;;;;;3.75;2.75;;;;;33.74;24.22;101319.16;4984202;27;45455;-66
2022/07/30 14:47:08;;;;;;;;;5.60;4.00;;;;;33.86;23.89;101338.97;4954571;27;45561;-66
2022/07/30 14:49:34;;;;;;;;;4.00;4.00;;;;;33.89;24.04;101314.25;4972806;28;45684;-66
2022/07/30 14:52:00;;;;;;;;;3.50;3.50;;;;;34.01;23.88;101317.75;4972375;27;45656;-65
2022/07/30 14:54:26;;;;;;;;;3.00;3.00;;;;;34.02;23.51;101324.03;4976239;27;45657;-67
2022/07/30 14:56:53;;;;;;;;;3.60;3.20;;;;;33.89;23.90;101332.41;4975156;27;45335;-66
2022/07/30 14:59:18;;;;;;;;;3.00;3.00;;;;;33.74;23.91;101315.56;4972143;27;45437;-66
2022/07/30 15:01:46;;;;;;;;;4.00;4.00;;;;;33.70;24.49;101327.72;4982508;27;45405;-67
2022/07/30 15:04:14;;;;;;;;;6.40;4.40;;;;;33.59;24.78;101328.63;4963431;28;45494;-67
2022/07/30 15:06:40;;;;;;;;;4.80;4.80;;;;;33.45;24.69;101313.50;4959214;28;45750;-65
2022/07/30 15:09:07;;;;;;;;;4.75;4.00;;;;;33.48;24.62;101315.97;5054759;27;45524;-68
2022/07/30 15:11:33;;;;;;;;;4.40;4.00;;;;;33.54;24.85;101303.69;4995455;27;46712;-67
2022/07/30 15:13:58;;;;;;;;;5.00;4.50;;;;;33.73;24.71;101309.28;4995418;27;45333;-66
2022/07/30 15:16:24;;;;;;;;;3.50;3.50;;;;;33.82;24.43;101299.47;4993336;27;45296;-65
2022/07/30 15:18:50;;;;;;;;;5.00;4.00;;;;;34.04;24.41;101311.16;5014539;27;45491;-67
2022/07/30 15:21:16;;;;;;;;;6.00;4.60;;;;;34.01;24.05;101309.59;4985295;27;45802;-66
2022/07/30 15:23:41;;;;;;;;;6.00;5.00;;;;;34.08;24.21;101313.47;5020007;27;45468;-66
2022/07/30 15:26:07;;;;;;;;;6.00;5.00;;;;;33.97;23.71;101295.41;5024707;27;45311;-66
2022/07/30 15:28:33;;;;;;;;;5.00;5.00;;;;;33.84;23.94;101269.44;4982159;27;45913;-67
2022/07/30 15:30:59;;;;;;;;;4.75;4.75;;;;;34.08;24.20;101309.91;4981607;27;45772;-66
2022/07/30 15:33:25;;;;;;;;;5.25;5.25;;;;;34.12;23.95;101306.81;4988164;27;45331;-68
2022/07/30 15:36:00;;;;;;;;;4.50;4.50;;;;;34.17;24.21;101307.25;5004573;27;45496;-64
2022/07/30 15:38:27;;;;;;;;;5.00;5.00;;;;;33.90;23.99;101288.78;4980392;27;45747;-66
2022/07/30 15:40:52;;;;;;;;;6.80;4.20;;;;;33.97;24.15;101313.56;5004419;27;45278;-67
2022/07/30 15:43:18;;;;;;;;;5.75;5.75;;;;;33.86;24.30;101313.63;4978329;27;45483;-66
2022/07/30 15:45:53;;;;;;;;;4.00;4.00;;;;;33.58;24.68;101297.06;4993073;27;45684;-66
2022/07/30 15:48:19;;;;;;;;;5.00;5.00;;;;;33.64;24.72;101317.38;5032816;27;45717;-65
2022/07/30 15:50:44;;;;;;;;;6.00;4.25;;;;;33.70;24.27;101309.56;5030152;27;46175;-64
2022/07/30 15:53:13;;;;;;;;;4.50;4.50;;;;;33.62;24.50;101300.34;4992335;27;45289;-65
2022/07/30 15:55:40;;;;;;;;;6.20;6.20;;;;;33.39;24.58;101262.44;4999257;27;45956;-65
2022/07/30 15:58:05;;;;;;;;;9.00;6.00;;;;;33.44;24.89;101300.06;4997421;27;45379;-67
2022/07/30 16:00:31;;;;;;;;;5.00;5.00;;;;;33.25;25.21;101279.91;4993457;27;45989;-66
2022/07/30 16:02:57;;;;;;;;;4.25;4.25;;;;;33.31;25.03;101305.66;5052216;27;45526;-64
2022/07/30 16:05:23;;;;;;;;;4.50;3.00;;;;;33.22;25.60;101306.44;5045138;27;45430;-66
2022/07/30 16:07:49;;;;;;;;;4.75;4.75;;;;;32.90;24.99;101262.03;5004039;27;45493;-66
2022/07/30 16:10:14;;;;;;;;;3.60;3.60;;;;;33.07;25.35;101300.47;5081534;27;45629;-65
2022/07/30 16:12:40;;;;;;;;;5.00;5.00;;;;;32.88;25.94;101299.28;4989681;27;45406;-64
2022/07/30 16:15:07;;;;;;;;;6.60;5.00;;;;;32.90;25.86;101305.44;5017862;27;45666;-65
2022/07/30 16:17:34;;;;;;;;;4.75;4.25;;;;;33.01;25.85;101296.41;5042901;27;45406;-67
2022/07/30 16:20:04;;;;;;;;;5.00;5.00;;;;;33.03;25.38;101285.41;4999873;27;46383;-66
2022/07/30 16:22:31;;;;;;;;;3.40;3.40;;;;;32.99;25.55;101289.38;5060541;27;46206;-66
2022/07/30 16:24:56;;;;;;;;;3.20;3.20;;;;;33.07;25.67;101293.19;5016547;27;45402;-66
2022/07/30 16:27:24;;;;;;;;;6.00;5.00;;;;;33.19;25.75;101291.28;5002437;27;45385;-66
2022/07/30 16:29:49;;;;;;;;;6.50;6.00;;;;;33.09;25.25;101274.94;5020199;27;46815;-66
2022/07/30 16:32:19;;;;;;;;;5.75;4.25;;;;;32.81;25.66;101237.53;5082437;27;45507;-65
2022/07/30 16:34:44;;;;;;;;;5.00;5.00;;;;;33.07;25.49;101293.19;5057440;27;45568;-66
2022/07/30 16:37:14;;;;;;;;;6.50;6.50;;;;;32.92;25.84;101278.19;5018593;27;45549;-66
2022/07/30 16:39:39;;;;;;;;;5.00;5.00;;;;;32.72;25.83;101258.13;4994003;27;45402;-66
2022/07/30 16:42:06;;;;;;;;;7.25;5.00;;;;;32.66;25.82;101258.66;4997503;27;45529;-67
2022/07/30 16:44:33;;;;;;;;;6.40;5.00;;;;;32.80;25.73;101279.22;4995467;27;45362;-65
2022/07/30 16:47:02;;;;;;;;;5.25;5.25;;;;;32.62;26.71;101257.19;5030972;27;45289;-65
2022/07/30 16:49:29;;;;;;;;;6.00;4.40;;;;;32.78;26.23;101289.34;5080998;27;45550;-66
2022/07/30 16:51:54;;;;;;;;;7.40;6.80;;;;;32.79;26.50;101285.63;5069809;27;45756;-66
2022/07/30 16:54:20;;;;;;;;;6.00;4.25;;;;;32.73;26.34;101270.72;5020611;27;45576;-65
2022/07/30 16:56:45;;;;;;;;;4.00;4.00;;;;;32.79;26.42;101278.34;4993487;27;45388;-67
2022/07/30 16:59:13;;;;;;;;;6.50;5.00;;;;;32.75;26.16;101282.31;4994632;27;45278;-66
2022/07/30 17:01:38;;;;;;;;;6.00;5.00;;;;;32.62;26.48;101274.31;5001556;27;45516;-67
2022/07/30 17:04:11;;;;;;;;;6.00;5.25;;;;;32.46;26.52;101257.56;4991057;27;45543;-66
2022/07/30 17:06:38;;;;;;;;;5.25;5.25;;;;;32.34;26.51;101243.16;5009484;27;45645;-68
2022/07/30 17:09:05;;;;;;;;;5.75;4.50;;;;;32.42;26.79;101277.78;5027711;27;45671;-66
2022/07/30 17:11:31;;;;;;;;;4.40;4.00;;;;;32.42;26.29;101277.78;4989825;27;45443;-67
2022/07/30 17:13:57;;;;;;;;;4.75;4.75;;;;;32.21;26.54;101248.75;5033874;27;45393;-67
2022/07/30 17:16:23;;;;;;;;;6.25;6.00;;;;;32.29;26.76;101278.78;5019781;27;45533;-66
2022/07/30 17:18:52;;;;;;;;;6.00;6.00;;;;;32.17;27.55;101266.22;5027125;27;46236;-65
2022/07/30 17:21:18;;;;;;;;;6.20;6.20;;;;;32.09;27.30;101264.16;5084354;27;45898;-67
2022/07/30 17:23:43;;;;;;;;;6.25;6.25;;;;;32.04;27.71;101268.22;5001450;27;45866;-66
2022/07/30 17:26:09;;;;;;;;;5.50;5.50;;;;;31.89;27.97;101264.84;5037162;27;45378;-66
2022/07/30 17:28:36;;;;;;;;;9.00;7.00;;;;;31.88;27.74;101260.41;5031310;27;45760;-67
2022/07/30 17:31:04;;;;;;;;;4.20;4.20;;;;;31.85;27.83;101255.25;4990524;27;45788;-67
2022/07/30 17:33:29;;;;;;;;;4.75;4.75;;;;;31.86;28.34;101271.38;5057942;27;45361;-68
2022/07/30 17:35:55;;;;;;;;;4.50;4.50;;;;;31.76;27.79;101269.53;5006832;27;45531;-67
2022/07/30 17:38:20;;;;;;;;;5.00;4.25;;;;;31.69;27.99;101263.72;4990162;27;45811;-65
2022/07/30 17:40:49;;;;;;;;;5.00;5.00;;;;;31.57;27.81;101260.13;5018515;27;45515;-67
2022/07/30 17:43:16;;;;;;;;;4.60;4.60;;;;;31.60;27.83;101269.84;4991047;27;45575;-67
2022/07/30 17:45:42;;;;;;;;;7.50;5.25;;;;;31.38;27.97;101239.03;5010051;27;45445;-67
2022/07/30 17:48:07;;;;;;;;;5.50;5.00;;;;;31.39;28.10;101251.56;4991061;27;45657;-67
2022/07/30 17:50:33;;;;;;;;;7.50;6.00;;;;;31.42;28.86;101272.19;5035183;27;45488;-66
2022/07/30 17:53:02;;;;;;;;;4.80;3.60;;;;;31.37;29.05;101268.91;5032473;27;45461;-66
2022/07/30 17:55:28;;;;;;;;;6.00;6.00;;;;;31.34;28.52;101271.84;4990343;27;45369;-67